createdAt,value
2022-08-14T00:06:38.272Z,4.40
2022-08-14T00:13:43.512Z,4.20
2022-08-14T00:20:53.708Z,3.78
2022-08-14T00:27:56.378Z,3.90
2022-08-14T00:35:01.638Z,4.13
2022-08-14T00:42:03.808Z,3.85
2022-08-14T00:49:06.403Z,4.38
2022-08-14T00:56:09.841Z,4.40
2022-08-14T01:03:17.006Z,4.07
2022-08-14T01:10:18.879Z,4.20
2022-08-14T01:17:22.063Z,4.30
2022-08-14T01:24:30.578Z,4.40
2022-08-14T01:31:50.258Z,3.85
2022-08-14T01:38:53.800Z,3.90
2022-08-14T01:46:06.145Z,4.18
2022-08-14T01:53:08.883Z,4.82
2022-08-14T02:00:16.895Z,3.67
2022-08-14T02:07:53.366Z,3.80
2022-08-14T02:14:59.065Z,4.15
2022-08-14T02:22:03.942Z,4.30
2022-08-14T02:29:12.584Z,3.90
2022-08-14T02:37:04.183Z,3.85
2022-08-14T02:43:46.194Z,4.35
2022-08-14T02:50:51.444Z,4.13
2022-08-14T02:58:02.897Z,4.82
2022-08-14T03:05:05.741Z,4.32
2022-08-14T03:12:07.763Z,4.43
2022-08-14T03:19:09.877Z,4.32
2022-08-14T03:26:29.830Z,4.43
2022-08-14T03:33:38.306Z,4.70
2022-08-14T03:40:42.284Z,4.50
2022-08-14T03:47:56.079Z,4.88
2022-08-14T03:55:00.930Z,5.25
2022-08-14T04:02:04.774Z,5.13
2022-08-14T04:09:26.742Z,4.82
2022-08-14T04:16:31.474Z,4.80
2022-08-14T04:23:33.798Z,4.80
2022-08-14T04:30:44.447Z,5.05
2022-08-14T04:38:35.881Z,5.38
2022-08-14T04:45:31.145Z,5.00
2022-08-14T04:52:34.116Z,5.25
2022-08-14T04:59:39.252Z,5.25
2022-08-14T05:06:44.895Z,4.68
2022-08-14T05:14:17.307Z,5.15
2022-08-14T05:22:00.103Z,5.70
2022-08-14T05:28:33.103Z,5.80
2022-08-14T05:35:35.463Z,5.90
2022-08-14T05:42:37.966Z,6.00
2022-08-14T05:49:40.239Z,6.25
2022-08-14T05:56:42.034Z,6.30
2022-08-14T06:03:45.530Z,5.63
2022-08-14T06:10:54.184Z,7.00
2022-08-14T06:18:00.071Z,6.57
2022-08-14T06:25:02.726Z,6.50
2022-08-14T06:32:36.767Z,6.55
2022-08-14T06:39:37.557Z,7.05
2022-08-14T06:46:39.803Z,7.00
2022-08-14T06:53:41.706Z,7.03
2022-08-14T07:01:04.180Z,6.80
2022-08-14T07:08:11.918Z,6.97
2022-08-14T07:15:13.813Z,6.65
2022-08-14T07:22:17.389Z,6.65
2022-08-14T07:29:26.322Z,7.10
2022-08-14T07:43:33.228Z,7.97
2022-08-14T07:50:37.291Z,7.00
2022-08-14T07:57:43.788Z,7.25
2022-08-14T08:04:54.101Z,6.82
2022-08-14T08:11:57.553Z,7.18
2022-08-14T08:19:02.953Z,7.30
2022-08-14T08:26:14.487Z,7.15
2022-08-14T08:33:18.514Z,7.47
2022-08-14T08:40:31.321Z,7.95
2022-08-14T08:47:41.001Z,7.40
2022-08-14T08:54:52.755Z,7.53
2022-08-14T09:02:00.781Z,6.75
2022-08-14T09:09:02.651Z,6.88
2022-08-14T09:16:18.524Z,7.18
2022-08-14T09:23:21.305Z,7.50
2022-08-14T09:30:42.224Z,8.55
2022-08-14T09:38:19.504Z,8.15
2022-08-14T09:45:53.115Z,8.70
2022-08-14T09:53:18.498Z,8.70
2022-08-14T10:00:34.594Z,8.70
2022-08-14T10:07:37.679Z,9.75
2022-08-14T10:14:44.457Z,9.70
2022-08-14T10:23:15.405Z,9.02
2022-08-14T10:29:31.804Z,9.57
2022-08-14T10:36:40.917Z,10.38
2022-08-14T10:43:43.545Z,9.80
2022-08-14T10:50:51.750Z,10.65
2022-08-14T10:57:54.413Z,10.77
2022-08-14T11:05:04.788Z,9.70
2022-08-14T11:12:35.020Z,11.10
2022-08-14T11:19:29.850Z,10.70
2022-08-14T11:26:40.332Z,11.02
2022-08-14T11:33:43.231Z,11.70
2022-08-14T11:40:46.711Z,10.98
2022-08-14T11:48:13.260Z,11.90
2022-08-14T11:55:13.069Z,11.20
2022-08-14T12:03:01.184Z,11.93
2022-08-14T12:09:42.802Z,10.32
2022-08-14T12:16:45.718Z,10.87
2022-08-14T12:23:50.599Z,10.88
2022-08-14T12:30:53.605Z,10.32
2022-08-14T12:37:58.791Z,10.75
2022-08-14T12:45:03.828Z,10.18
2022-08-14T12:52:16.859Z,10.07
2022-08-14T12:59:29.401Z,11.65
2022-08-14T13:06:34.061Z,10.43
2022-08-14T13:13:36.580Z,10.88
2022-08-14T13:20:39.473Z,10.13
2022-08-14T13:27:50.680Z,10.13
2022-08-14T13:34:58.428Z,10.40
2022-08-14T13:42:10.921Z,10.80
2022-08-14T13:49:16.328Z,10.32
2022-08-14T13:56:36.049Z,12.23
2022-08-14T14:03:39.674Z,10.07
2022-08-14T14:10:41.626Z,10.80
2022-08-14T14:17:48.182Z,10.38
2022-08-14T14:24:50.074Z,10.77
2022-08-14T14:31:52.465Z,11.43
2022-08-14T14:38:56.263Z,10.80
2022-08-14T14:45:58.421Z,9.77
2022-08-14T14:53:12.661Z,10.20
2022-08-14T15:00:19.568Z,12.40
2022-08-14T15:07:22.948Z,13.52
2022-08-14T15:14:55.328Z,14.02
2022-08-14T15:21:47.120Z,13.63
2022-08-14T15:29:02.822Z,13.35
2022-08-14T15:36:26.176Z,13.23
2022-08-14T15:43:35.445Z,12.73
2022-08-14T15:50:45.658Z,12.95
2022-08-14T15:58:10.243Z,12.55
2022-08-14T16:05:26.597Z,12.77
2022-08-14T16:12:50.067Z,12.23
2022-08-14T16:19:56.716Z,10.65
2022-08-14T16:27:00.748Z,11.40
2022-08-14T16:34:44.434Z,11.32
2022-08-14T16:41:27.607Z,11.23
2022-08-14T16:48:57.566Z,11.80
2022-08-14T16:56:23.308Z,12.27
2022-08-14T17:03:25.677Z,11.52
2022-08-14T17:10:28.275Z,11.75
2022-08-14T17:17:36.826Z,12.05
2022-08-14T17:24:56.699Z,12.35
2022-08-14T17:32:29.948Z,14.25
2022-08-14T17:39:40.026Z,14.95
2022-08-14T17:46:45.931Z,15.25
2022-08-14T17:53:52.616Z,15.57
2022-08-14T18:00:57.655Z,16.20
2022-08-14T18:08:33.707Z,15.50
2022-08-14T18:15:36.898Z,15.52
2022-08-14T18:22:39.713Z,14.57
2022-08-14T18:29:54.691Z,14.88
2022-08-14T18:37:00.413Z,16.15
2022-08-14T18:44:10.349Z,14.68
2022-08-14T18:51:13.132Z,14.32
2022-08-14T18:58:28.259Z,12.50
2022-08-14T19:05:39.091Z,12.85
2022-08-14T19:12:53.421Z,11.98
2022-08-14T19:20:08.527Z,10.50
2022-08-14T19:27:16.557Z,10.30
2022-08-14T19:41:33.861Z,9.82
2022-08-14T19:48:39.047Z,9.10
2022-08-14T19:55:45.618Z,10.10
2022-08-14T20:02:50.815Z,10.40
2022-08-14T20:11:06.554Z,9.57
2022-08-14T20:17:22.872Z,10.13
2022-08-14T20:24:30.934Z,10.05
2022-08-14T20:31:36.988Z,10.00
2022-08-14T20:38:40.142Z,9.60
2022-08-14T20:45:52.392Z,9.70
2022-08-14T20:52:54.344Z,10.27
2022-08-14T20:59:57.444Z,10.00
2022-08-14T21:07:24.966Z,10.88
2022-08-14T21:14:29.388Z,11.13
2022-08-14T21:21:41.885Z,9.80
2022-08-14T21:28:44.504Z,9.95
2022-08-14T21:35:46.947Z,10.63
2022-08-14T21:42:49.147Z,10.38
2022-08-14T21:49:50.989Z,9.93
2022-08-14T21:56:56.953Z,10.90
2022-08-14T22:04:02.387Z,10.82
2022-08-14T22:11:21.954Z,10.07
2022-08-14T22:18:25.508Z,9.88
2022-08-14T22:25:33.317Z,11.20
2022-08-14T22:32:57.620Z,11.70
2022-08-14T22:40:17.325Z,10.57
2022-08-14T22:47:24.568Z,10.65
2022-08-14T22:54:51.859Z,10.48
2022-08-14T23:01:58.647Z,10.95
2022-08-14T23:09:34.567Z,10.55
2022-08-14T23:16:24.304Z,10.48
2022-08-14T23:23:26.891Z,11.43
2022-08-14T23:30:31.809Z,10.30
2022-08-14T23:37:36.510Z,11.13
2022-08-14T23:44:39.400Z,11.05
2022-08-14T23:51:48.997Z,11.85
2022-08-14T23:59:10.920Z,11.88
